Rochester, NY (14606)

5:25 PM EST on February 08, 2016 (GMT -0500)
western monroe county | | Change Station
CLOSE
Current Station
Personal Weather Station
Location: Rochester, NY
Elevation: 535 ft
Nearby Weather Stations

Elev 535 ft 43.17 °N, 77.69 °W | Updated 5 seconds ago

Overcast
Overcast
39.6 °F
Feels Like 36 °F
N
4.6
Wind Variable Wind from SSE
Gusts 4.6 mph

Today
High -- | Low -- °F
--% Chance of Precip.
Yesterday
High -- | Low -- °F
Precip. -- in
Pressure 29.65 in
Visibility 10.0 miles
Clouds Few 6000 ft
Mostly Cloudy 10000 ft
Overcast 15000 ft
Windchill 36 °F
Dew Point -0 °F
Humidity 18%
Rainfall 0.00 in
Snow Depth Not available.
7:18 AM 5:31 PM
New Moon, 0% visible
METAR KROC 082154Z 10010KT 10SM FEW060 BKN100 OVC150 04/M03 A2963 RMK AO2 SLP041 T00441033
Pressure 29.65 in
Visibility 10.0 miles
Clouds Few 6000 ft
Mostly Cloudy 10000 ft
Overcast 15000 ft
Windchill 36 °F
Dew Point -0 °F
Humidity 18%
Rainfall 0.00 in
Snow Depth Not available.
7:18 AM 5:31 PM
New Moon, 0% visible
METAR KROC 082154Z 10010KT 10SM FEW060 BKN100 OVC150 04/M03 A2963 RMK AO2 SLP041 T00441033

10-Day Weather Forecast

Almanac

Astronomy

Feb. 08, 2016 Rise Set
Actual Time
Civil Twilight
Nautical Twilight
Astronomical Twilight
Moon
Length of Visible Light
Length of Day
Tomorrow will be .
, % of the Moon is Illuminated

Today's Extremes

State Highs State Lows

Community

WunderPhotos

Upload Photos

1,891,518 photos uploaded!

WunderBlog® & News

Nearby

Air Quality

  Air Quality AQ Index Pollutant
Not available.

Snow Depth

Station Depth Elevation

Earthquake Activity

City Distance Mag. Time & Date
Minimum magnitude displayed is 2.5.

Coastal Water Temperatures

Place Temperature

Stations

Nearby Weather Stations

Station Location Temp. Windchill Dew Point Humidity Wind Precip. Elev Updated Type
                   

Watches & Warnings

There are currently no watches in effect.